createdAt,value
2018-03-31T00:01:10.629Z,6.50
2018-03-31T00:03:37.623Z,6.40
2018-03-31T00:06:04.636Z,6.50
2018-03-31T00:08:31.637Z,6.50
2018-03-31T00:10:59.421Z,6.50
2018-03-31T00:13:26.418Z,6.50
2018-03-31T00:15:53.463Z,6.60
2018-03-31T00:18:20.569Z,6.50
2018-03-31T00:20:47.589Z,6.60
2018-03-31T00:23:15.358Z,6.50
2018-03-31T00:25:42.360Z,6.40
2018-03-31T00:28:09.376Z,6.50
2018-03-31T00:30:36.398Z,6.50
2018-03-31T00:33:04.181Z,6.50
2018-03-31T00:35:31.173Z,6.50
2018-03-31T00:37:58.186Z,6.60
2018-03-31T00:40:25.188Z,6.70
2018-03-31T00:42:52.938Z,6.60
2018-03-31T00:45:19.953Z,6.60
2018-03-31T00:47:46.996Z,6.60
2018-03-31T00:50:14.029Z,6.60
2018-03-31T00:52:41.028Z,6.60
2018-03-31T00:55:08.827Z,6.50
2018-03-31T00:57:35.840Z,6.50
2018-03-31T01:00:02.869Z,6.60
2018-03-31T01:02:29.867Z,6.70
2018-03-31T01:04:56.875Z,6.70
2018-03-31T01:07:23.897Z,6.70
2018-03-31T01:09:50.905Z,6.70
2018-03-31T01:12:17.919Z,6.70
2018-03-31T01:14:44.944Z,6.60
2018-03-31T01:17:11.964Z,6.60
2018-03-31T01:19:38.980Z,6.60
2018-03-31T01:22:06.787Z,6.60
2018-03-31T01:24:33.790Z,6.60
2018-03-31T01:27:01.571Z,6.70
2018-03-31T01:29:28.573Z,6.70
2018-03-31T01:31:55.577Z,6.70
2018-03-31T01:34:22.608Z,6.70
2018-03-31T01:36:49.610Z,6.60
2018-03-31T01:39:16.628Z,6.60
2018-03-31T01:41:43.631Z,6.60
2018-03-31T01:44:11.419Z,6.60
2018-03-31T01:46:38.415Z,6.60
2018-03-31T01:49:05.436Z,6.60
2018-03-31T01:51:32.456Z,6.50
2018-03-31T01:53:59.482Z,6.50
2018-03-31T01:56:27.253Z,6.60
2018-03-31T01:58:55.023Z,6.60
2018-03-31T02:01:22.031Z,6.60
2018-03-31T02:03:49.036Z,6.50
2018-03-31T02:06:16.048Z,6.50
2018-03-31T02:08:43.809Z,6.50
2018-03-31T02:11:11.577Z,6.50
2018-03-31T02:13:39.344Z,6.50
2018-03-31T02:16:07.122Z,6.60
2018-03-31T02:18:34.123Z,6.50
2018-03-31T02:21:01.136Z,6.60
2018-03-31T02:23:28.255Z,6.70
2018-03-31T02:25:56.014Z,6.70
2018-03-31T02:28:23.802Z,6.70
2018-03-31T02:30:50.808Z,6.70
2018-03-31T02:33:17.899Z,6.70
2018-03-31T02:35:44.907Z,6.70
2018-03-31T02:38:11.968Z,6.70
2018-03-31T02:40:39.744Z,6.80
2018-03-31T02:43:07.519Z,6.80
2018-03-31T02:45:34.524Z,6.70
2018-03-31T02:48:01.542Z,6.70
2018-03-31T02:50:28.567Z,6.70
2018-03-31T02:52:55.566Z,6.70
2018-03-31T02:55:22.601Z,6.70
2018-03-31T02:57:49.606Z,6.80
2018-03-31T03:00:16.618Z,6.80
2018-03-31T03:02:44.452Z,6.80
2018-03-31T03:05:11.485Z,6.80
2018-03-31T03:07:38.483Z,6.80
2018-03-31T03:10:06.324Z,6.80
2018-03-31T03:12:33.401Z,6.70
2018-03-31T03:15:01.179Z,6.80
2018-03-31T03:17:28.208Z,6.70
2018-03-31T03:19:55.983Z,6.70
2018-03-31T03:22:23.774Z,6.70
2018-03-31T03:24:50.812Z,6.70
2018-03-31T03:27:17.895Z,6.70
2018-03-31T03:29:45.026Z,6.60
2018-03-31T03:32:12.110Z,6.60
2018-03-31T03:34:39.185Z,6.60
2018-03-31T03:37:07.026Z,6.50
2018-03-31T03:39:34.072Z,6.50
2018-03-31T03:42:01.107Z,6.60
2018-03-31T03:44:28.164Z,6.60
2018-03-31T03:46:55.182Z,6.60
2018-03-31T03:49:22.221Z,6.60
2018-03-31T03:51:49.216Z,6.60
2018-03-31T03:54:16.268Z,6.50
2018-03-31T03:56:44.037Z,6.40
2018-03-31T03:59:11.791Z,6.50
2018-03-31T04:01:38.818Z,6.40
2018-03-31T04:04:05.816Z,6.20
2018-03-31T04:06:32.836Z,6.10
2018-03-31T04:09:00.603Z,6.20
2018-03-31T04:11:28.387Z,6.30
2018-03-31T04:13:55.398Z,6.30
2018-03-31T04:16:22.416Z,6.30
2018-03-31T04:18:49.417Z,6.20
2018-03-31T04:21:16.424Z,6.20
2018-03-31T04:23:43.435Z,6.00
2018-03-31T04:26:10.431Z,5.90
2018-03-31T04:28:37.465Z,6.00
2018-03-31T04:31:04.502Z,6.00
2018-03-31T04:33:31.511Z,5.90
2018-03-31T04:35:58.526Z,5.60
2018-03-31T04:38:25.533Z,5.70
2018-03-31T04:40:52.564Z,5.70
2018-03-31T04:43:19.583Z,5.80
2018-03-31T04:45:47.354Z,5.90
2018-03-31T04:48:14.381Z,5.90
2018-03-31T04:50:42.313Z,5.80
2018-03-31T04:53:09.608Z,5.80
2018-03-31T04:55:37.470Z,5.70
2018-03-31T04:58:05.318Z,5.80
2018-03-31T05:00:32.549Z,5.70
2018-03-31T05:02:59.670Z,5.80
2018-03-31T05:05:26.820Z,5.80
2018-03-31T05:07:54.139Z,5.70
2018-03-31T05:10:21.954Z,5.50
2018-03-31T05:12:49.191Z,5.40
2018-03-31T05:15:16.547Z,5.30
2018-03-31T05:17:43.659Z,5.30
2018-03-31T05:20:10.846Z,5.30
2018-03-31T05:22:38.134Z,5.30
2018-03-31T05:25:05.284Z,5.30
2018-03-31T05:27:32.562Z,5.40
2018-03-31T05:29:59.733Z,5.40
2018-03-31T05:32:27.722Z,5.40
2018-03-31T05:34:54.841Z,5.40
2018-03-31T05:37:22.823Z,5.50
2018-03-31T05:39:50.727Z,5.40
2018-03-31T05:42:17.824Z,5.40
2018-03-31T05:44:45.701Z,5.40
2018-03-31T05:47:13.557Z,5.50
2018-03-31T05:49:41.486Z,5.60
2018-03-31T05:52:08.708Z,5.60
2018-03-31T05:54:35.906Z,5.60
2018-03-31T05:57:03.112Z,5.70
2018-03-31T05:59:30.264Z,5.70
2018-03-31T06:01:57.461Z,5.50
2018-03-31T06:04:24.612Z,5.50
2018-03-31T06:06:51.981Z,5.40
2018-03-31T06:09:19.064Z,5.50
2018-03-31T06:11:46.269Z,5.60
2018-03-31T06:14:13.553Z,5.70
2018-03-31T06:16:41.458Z,5.70
2018-03-31T06:19:08.689Z,5.70
2018-03-31T06:21:36.164Z,5.70
2018-03-31T06:24:03.377Z,5.60
2018-03-31T06:26:31.233Z,5.70
2018-03-31T06:28:59.110Z,5.70
2018-03-31T06:31:27.063Z,5.70
2018-03-31T06:33:54.225Z,5.60
2018-03-31T06:36:21.377Z,5.70
2018-03-31T06:38:49.235Z,5.90
2018-03-31T06:41:17.116Z,5.90
2018-03-31T06:43:45.152Z,5.90
2018-03-31T06:46:12.229Z,5.90
2018-03-31T06:48:40.184Z,5.60
2018-03-31T06:51:08.006Z,5.50
2018-03-31T06:53:35.083Z,5.60
2018-03-31T06:56:02.285Z,5.80
2018-03-31T06:58:29.357Z,6.00
2018-03-31T07:00:56.533Z,6.20
2018-03-31T07:03:23.686Z,6.40
2018-03-31T07:05:58.086Z,6.20
2018-03-31T07:44:21.497Z,17.70
2018-03-31T07:46:48.860Z,14.60
2018-03-31T07:49:16.734Z,11.20
2018-03-31T07:51:44.660Z,11.20
2018-03-31T07:54:11.878Z,10.30
2018-03-31T07:56:39.704Z,9.40
2018-03-31T07:59:06.882Z,9.40
2018-03-31T08:01:34.745Z,9.00
2018-03-31T08:04:02.587Z,8.60
2018-03-31T08:06:29.821Z,8.60
2018-03-31T08:08:57.054Z,8.50
2018-03-31T08:11:24.333Z,8.40
2018-03-31T08:13:51.494Z,8.50
2018-03-31T08:16:18.987Z,8.60
2018-03-31T08:18:47.203Z,8.10
2018-03-31T08:21:14.374Z,8.00
2018-03-31T08:23:42.686Z,8.00
2018-03-31T08:28:44.281Z,8.10
2018-03-31T08:31:13.273Z,8.10
2018-03-31T08:33:40.502Z,8.20
2018-03-31T08:36:08.574Z,8.50
2018-03-31T08:38:36.770Z,8.40
2018-03-31T08:41:03.860Z,8.40
2018-03-31T08:43:30.968Z,8.20
2018-03-31T08:45:58.322Z,8.10
2018-03-31T08:48:25.576Z,7.90
2018-03-31T08:50:52.907Z,8.10
2018-03-31T08:53:20.798Z,8.20
2018-03-31T08:55:48.254Z,8.20
2018-03-31T08:58:15.480Z,8.50
2018-03-31T09:00:43.335Z,8.50
2018-03-31T09:03:10.524Z,8.50
2018-03-31T09:05:37.774Z,8.60
2018-03-31T09:08:05.069Z,8.80
2018-03-31T09:10:32.285Z,8.60
2018-03-31T09:12:59.497Z,8.60
2018-03-31T09:15:27.447Z,8.50
2018-03-31T09:17:54.697Z,8.50
2018-03-31T09:20:21.833Z,8.60
2018-03-31T09:22:48.926Z,8.60
2018-03-31T09:25:16.847Z,9.00
2018-03-31T09:27:44.089Z,8.90
2018-03-31T09:30:11.219Z,9.00
2018-03-31T09:32:39.802Z,9.10
2018-03-31T09:35:06.950Z,9.20
2018-03-31T09:37:34.252Z,8.70
2018-03-31T09:40:01.574Z,9.00
2018-03-31T09:42:29.484Z,9.20
2018-03-31T09:44:56.781Z,9.20
2018-03-31T09:47:23.881Z,9.10
2018-03-31T09:49:51.075Z,9.10
2018-03-31T09:52:18.160Z,9.10
2018-03-31T09:54:45.278Z,8.90
2018-03-31T09:57:12.426Z,9.20
2018-03-31T09:59:39.641Z,9.30
2018-03-31T10:02:06.775Z,9.30
2018-03-31T10:04:33.894Z,8.90
2018-03-31T10:07:01.129Z,8.90
2018-03-31T10:09:28.586Z,8.90
2018-03-31T10:11:56.043Z,9.20
2018-03-31T10:14:23.474Z,9.50
2018-03-31T10:16:51.299Z,9.80
2018-03-31T10:19:18.514Z,9.80
2018-03-31T10:21:45.634Z,9.90
2018-03-31T10:24:13.464Z,10.10
2018-03-31T10:26:40.676Z,10.10
2018-03-31T10:29:07.806Z,10.20
2018-03-31T10:31:35.630Z,10.40
2018-03-31T10:34:02.749Z,10.40
2018-03-31T10:36:29.868Z,10.50
2018-03-31T10:38:57.085Z,10.80
2018-03-31T10:41:24.259Z,11.10
2018-03-31T10:43:51.322Z,11.40
2018-03-31T10:46:19.176Z,12.00
2018-03-31T10:48:47.081Z,11.90
2018-03-31T10:51:14.152Z,11.90
2018-03-31T10:53:41.188Z,11.90
2018-03-31T10:56:08.245Z,12.00
2018-03-31T10:58:35.942Z,11.80
2018-03-31T11:01:03.577Z,11.80
2018-03-31T11:03:30.779Z,11.50
2018-03-31T11:05:58.579Z,11.30
2018-03-31T11:08:25.622Z,11.30
2018-03-31T11:10:52.702Z,11.10
2018-03-31T11:13:19.807Z,11.10
2018-03-31T11:15:47.031Z,11.10
2018-03-31T11:18:14.098Z,11.30
2018-03-31T11:20:41.217Z,11.60
2018-03-31T11:23:08.320Z,11.70
2018-03-31T11:25:35.355Z,11.70
2018-03-31T11:28:03.273Z,11.70
2018-03-31T11:30:30.367Z,11.80
2018-03-31T11:32:57.506Z,11.80
2018-03-31T11:35:24.553Z,11.80
2018-03-31T11:37:51.578Z,11.80
2018-03-31T11:40:19.414Z,12.00
2018-03-31T11:42:46.701Z,12.00
2018-03-31T11:45:14.555Z,12.10
2018-03-31T11:47:42.391Z,12.10
2018-03-31T11:50:09.502Z,12.10
2018-03-31T11:52:36.568Z,12.20
2018-03-31T11:55:03.635Z,12.50
2018-03-31T11:57:30.858Z,13.00
2018-03-31T11:59:57.954Z,13.40
2018-03-31T12:02:25.051Z,13.60
2018-03-31T12:04:52.138Z,13.50
2018-03-31T12:07:19.188Z,13.40
2018-03-31T12:09:46.324Z,13.40
2018-03-31T12:12:13.378Z,13.50
2018-03-31T12:14:40.435Z,14.30
2018-03-31T12:17:07.471Z,14.00
2018-03-31T12:19:34.489Z,13.60
2018-03-31T12:22:01.639Z,13.30
2018-03-31T12:24:28.659Z,13.30
2018-03-31T12:26:56.451Z,13.00
2018-03-31T12:29:23.590Z,13.00
2018-03-31T12:31:50.620Z,13.00
2018-03-31T12:34:18.437Z,13.00
2018-03-31T12:36:45.448Z,13.00
2018-03-31T12:39:12.608Z,12.90
2018-03-31T12:41:39.646Z,12.80
2018-03-31T12:44:06.824Z,12.60
2018-03-31T12:46:34.024Z,12.70
2018-03-31T12:49:01.870Z,12.60
2018-03-31T12:51:28.993Z,12.60
2018-03-31T12:53:56.064Z,12.60
2018-03-31T12:56:23.167Z,12.50
2018-03-31T12:58:50.287Z,12.40
2018-03-31T13:01:18.175Z,12.60
2018-03-31T13:03:45.272Z,12.60
2018-03-31T13:06:12.344Z,12.10
2018-03-31T13:08:39.532Z,12.30
2018-03-31T13:11:06.646Z,12.10
2018-03-31T13:13:34.458Z,12.10
2018-03-31T13:16:01.547Z,12.10
2018-03-31T13:18:28.643Z,12.10
2018-03-31T13:20:55.641Z,12.00
2018-03-31T13:23:22.664Z,11.90
2018-03-31T13:25:49.654Z,11.80
2018-03-31T13:28:17.449Z,11.70
2018-03-31T13:30:44.457Z,11.70
2018-03-31T13:33:11.486Z,11.60
2018-03-31T13:35:38.556Z,11.50
2018-03-31T13:38:05.648Z,11.40
2018-03-31T13:40:32.724Z,11.50
2018-03-31T13:42:59.795Z,11.50
2018-03-31T13:45:27.671Z,11.20
2018-03-31T13:47:55.460Z,11.20
2018-03-31T13:50:22.554Z,11.10
2018-03-31T13:52:49.679Z,11.00
2018-03-31T13:55:16.747Z,11.00
2018-03-31T13:57:43.822Z,11.10
2018-03-31T14:00:10.944Z,11.10
2018-03-31T14:02:38.043Z,11.10
2018-03-31T14:05:05.086Z,11.00
2018-03-31T14:07:32.918Z,11.10
2018-03-31T14:10:00.132Z,11.00
2018-03-31T14:12:27.931Z,11.10
2018-03-31T14:14:55.723Z,11.10
2018-03-31T14:17:23.584Z,11.10
2018-03-31T14:19:51.376Z,11.20
2018-03-31T14:22:18.460Z,11.10
2018-03-31T14:24:45.521Z,11.10
2018-03-31T14:27:12.587Z,11.10
2018-03-31T14:29:39.676Z,11.20
2018-03-31T14:32:06.717Z,11.20
2018-03-31T14:34:33.920Z,11.20
2018-03-31T14:37:01.775Z,11.20
2018-03-31T14:39:28.857Z,11.10
2018-03-31T14:41:57.796Z,11.30
2018-03-31T14:44:24.890Z,11.30
2018-03-31T14:46:52.900Z,11.40
2018-03-31T14:49:20.051Z,11.40
2018-03-31T14:51:47.120Z,11.50
2018-03-31T14:54:14.187Z,11.60
2018-03-31T14:56:41.322Z,11.60
2018-03-31T14:59:08.398Z,11.60
2018-03-31T15:01:35.531Z,11.50
2018-03-31T15:04:02.610Z,11.50
2018-03-31T15:06:30.494Z,11.40
2018-03-31T15:08:57.686Z,11.40
2018-03-31T15:11:24.722Z,11.30
2018-03-31T15:13:51.816Z,11.10
2018-03-31T15:16:18.899Z,11.20
2018-03-31T15:18:45.932Z,11.20
2018-03-31T15:21:12.986Z,11.10
2018-03-31T15:23:40.063Z,11.10
2018-03-31T15:26:07.095Z,11.10
2018-03-31T15:28:34.259Z,10.80
2018-03-31T15:31:01.368Z,10.80
2018-03-31T15:33:29.264Z,10.80
2018-03-31T15:35:57.034Z,10.90
2018-03-31T15:38:24.118Z,10.90
2018-03-31T15:40:51.168Z,10.90
2018-03-31T15:43:18.312Z,10.60
2018-03-31T15:45:45.495Z,10.50
2018-03-31T15:48:13.357Z,10.40
2018-03-31T15:50:41.202Z,10.30
2018-03-31T15:53:08.257Z,10.30
2018-03-31T15:55:35.379Z,10.50
2018-03-31T15:58:02.471Z,10.60
2018-03-31T16:00:30.334Z,10.50
2018-03-31T16:02:58.348Z,10.30
2018-03-31T16:05:25.448Z,10.30
2018-03-31T16:07:53.384Z,10.70
2018-03-31T16:10:20.500Z,10.60
2018-03-31T16:12:47.627Z,10.70
2018-03-31T16:15:15.493Z,10.70
2018-03-31T16:17:43.532Z,10.50
2018-03-31T16:20:11.473Z,10.50
2018-03-31T16:22:38.672Z,10.50
2018-03-31T16:25:05.825Z,10.50
2018-03-31T16:27:33.903Z,9.70
2018-03-31T16:30:01.896Z,9.90
2018-03-31T16:32:30.256Z,9.90
2018-03-31T16:34:58.237Z,10.00
2018-03-31T16:37:25.479Z,10.00
2018-03-31T16:39:53.547Z,9.80
2018-03-31T16:42:21.509Z,9.80
2018-03-31T16:44:49.485Z,9.90
2018-03-31T16:47:17.327Z,10.00
2018-03-31T16:49:44.417Z,10.00
2018-03-31T16:52:11.620Z,9.80
2018-03-31T16:54:42.634Z,9.40
2018-03-31T16:57:09.725Z,8.80
2018-03-31T16:59:37.762Z,8.10
2018-03-31T17:02:04.808Z,8.10
2018-03-31T17:04:31.936Z,8.00
2018-03-31T17:06:59.013Z,7.80
2018-03-31T17:09:26.057Z,7.70
2018-03-31T17:11:53.254Z,7.80
2018-03-31T17:14:21.144Z,7.90
2018-03-31T17:16:48.193Z,7.90
2018-03-31T17:19:15.246Z,7.90
2018-03-31T17:21:42.442Z,7.80
2018-03-31T17:24:09.536Z,7.90
2018-03-31T17:26:36.957Z,8.20
2018-03-31T17:29:04.828Z,7.70
2018-03-31T17:31:32.717Z,7.50
2018-03-31T17:33:59.865Z,7.50
2018-03-31T17:36:26.919Z,7.50
2018-03-31T17:38:54.010Z,7.40
2018-03-31T17:41:21.021Z,7.40
2018-03-31T17:43:48.063Z,7.60
2018-03-31T17:46:15.140Z,7.60
2018-03-31T17:48:42.146Z,7.60
2018-03-31T17:51:09.185Z,7.70
2018-03-31T17:53:36.235Z,7.90
2018-03-31T17:56:04.022Z,7.10
2018-03-31T17:58:31.026Z,7.10
2018-03-31T18:00:58.989Z,7.80
2018-03-31T18:03:26.000Z,7.80
2018-03-31T18:05:53.019Z,7.40
2018-03-31T18:08:20.108Z,7.40
2018-03-31T18:10:47.133Z,7.00
2018-03-31T18:13:14.160Z,7.00
2018-03-31T18:15:41.222Z,7.20
2018-03-31T18:18:08.256Z,7.40
2018-03-31T18:20:35.308Z,7.40
2018-03-31T18:23:02.320Z,7.00
2018-03-31T18:25:30.255Z,7.20
2018-03-31T18:27:57.271Z,7.20
2018-03-31T18:30:24.277Z,7.10
2018-03-31T18:32:51.400Z,7.10
2018-03-31T18:35:18.455Z,6.90
2018-03-31T18:37:45.569Z,6.90
2018-03-31T18:40:12.606Z,7.00
2018-03-31T18:42:39.644Z,7.40
2018-03-31T18:45:06.694Z,7.30
2018-03-31T18:47:33.731Z,7.20
2018-03-31T18:50:01.621Z,7.30
2018-03-31T18:52:28.680Z,7.30
2018-03-31T18:54:55.759Z,7.40
2018-03-31T18:57:22.761Z,7.20
2018-03-31T18:59:49.830Z,7.40
2018-03-31T19:02:16.845Z,7.30
2018-03-31T19:04:43.864Z,7.50
2018-03-31T19:07:10.971Z,7.40
2018-03-31T19:09:37.986Z,7.40
2018-03-31T19:12:05.036Z,7.40
2018-03-31T19:14:32.066Z,7.50
2018-03-31T19:17:05.430Z,7.10
2018-03-31T19:19:32.459Z,7.20
2018-03-31T19:21:59.506Z,7.20
2018-03-31T19:24:26.531Z,7.20
2018-03-31T19:26:53.578Z,7.40
2018-03-31T19:29:20.623Z,7.40
2018-03-31T19:31:47.618Z,7.50
2018-03-31T19:34:14.822Z,7.60
2018-03-31T19:36:41.865Z,7.70
2018-03-31T19:39:09.025Z,7.80
2018-03-31T19:41:36.056Z,7.70
2018-03-31T19:44:03.153Z,7.70
2018-03-31T19:46:30.157Z,7.70
2018-03-31T19:48:57.213Z,7.70
2018-03-31T19:51:24.229Z,7.50
2018-03-31T19:53:51.990Z,7.50
2018-03-31T19:56:19.763Z,7.20
2018-03-31T19:58:47.568Z,7.30
2018-03-31T20:01:14.640Z,7.30
2018-03-31T20:03:41.666Z,7.20
2018-03-31T20:06:08.693Z,7.30
2018-03-31T20:08:35.686Z,7.20
2018-03-31T20:11:02.743Z,7.20
2018-03-31T20:13:29.790Z,7.00
2018-03-31T20:15:56.798Z,7.30
2018-03-31T20:18:23.926Z,7.20
2018-03-31T20:20:50.956Z,7.20
2018-03-31T20:23:18.773Z,6.90
2018-03-31T20:25:45.825Z,7.00
2018-03-31T20:28:12.892Z,7.20
2018-03-31T20:30:39.918Z,7.10
2018-03-31T20:33:06.963Z,7.10
2018-03-31T20:35:33.990Z,7.10
2018-03-31T20:38:01.047Z,7.30
2018-03-31T20:40:28.067Z,7.30
2018-03-31T20:42:55.189Z,7.30
2018-03-31T20:45:22.971Z,7.40
2018-03-31T20:47:50.068Z,7.30
2018-03-31T20:50:17.118Z,7.30
2018-03-31T20:52:44.171Z,7.20
2018-03-31T20:55:11.227Z,7.50
2018-03-31T20:57:38.267Z,7.50
2018-03-31T21:00:05.310Z,7.50
2018-03-31T21:02:32.325Z,7.50
2018-03-31T21:04:59.454Z,7.70
2018-03-31T21:07:26.509Z,7.70
2018-03-31T21:09:53.513Z,7.70
2018-03-31T21:12:20.612Z,7.60
2018-03-31T21:14:47.642Z,7.60
2018-03-31T21:17:15.452Z,7.30
2018-03-31T21:19:42.469Z,7.20
2018-03-31T21:22:09.588Z,7.00
2018-03-31T21:24:37.375Z,7.10
2018-03-31T21:27:04.414Z,7.00
2018-03-31T21:29:31.488Z,7.00
2018-03-31T21:31:59.293Z,7.00
2018-03-31T21:34:26.457Z,7.00
2018-03-31T21:36:53.506Z,7.10
2018-03-31T21:39:21.286Z,7.00
2018-03-31T21:41:49.505Z,7.00
2018-03-31T21:44:16.598Z,7.00
2018-03-31T21:46:44.422Z,7.00
2018-03-31T21:49:11.415Z,6.90
2018-03-31T21:51:39.209Z,7.10
2018-03-31T21:54:06.287Z,7.10
2018-03-31T21:56:33.326Z,7.20
2018-03-31T21:59:00.352Z,7.30
2018-03-31T22:01:27.379Z,7.50
2018-03-31T22:03:55.154Z,7.10
2018-03-31T22:06:22.166Z,7.10
2018-03-31T22:08:49.176Z,7.30
2018-03-31T22:11:16.187Z,7.20
2018-03-31T22:13:48.826Z,7.00
2018-03-31T22:16:15.916Z,6.90
2018-03-31T22:18:42.925Z,6.90
2018-03-31T22:21:10.058Z,6.80
2018-03-31T22:23:37.153Z,7.00
2018-03-31T22:26:04.954Z,7.20
2018-03-31T22:28:31.977Z,7.20
2018-03-31T22:30:58.993Z,7.00
2018-03-31T22:33:26.814Z,7.00
2018-03-31T22:35:53.913Z,7.10
2018-03-31T22:38:21.702Z,7.30
2018-03-31T22:40:48.711Z,7.20
2018-03-31T22:43:15.728Z,7.20
2018-03-31T22:45:42.860Z,7.20
2018-03-31T22:48:09.897Z,7.00
2018-03-31T22:50:36.913Z,7.20
2018-03-31T22:53:04.709Z,7.30
2018-03-31T22:55:31.756Z,7.20
2018-03-31T22:57:58.779Z,7.10
2018-03-31T23:00:26.606Z,7.10
2018-03-31T23:02:53.644Z,7.10
2018-03-31T23:05:20.638Z,7.20
2018-03-31T23:07:48.439Z,7.20
2018-03-31T23:10:15.458Z,7.20
2018-03-31T23:12:43.260Z,7.40
2018-03-31T23:15:10.280Z,7.40
2018-03-31T23:17:37.307Z,7.20
2018-03-31T23:20:05.082Z,6.90
2018-03-31T23:22:32.176Z,6.90
2018-03-31T23:24:59.357Z,6.70
2018-03-31T23:27:26.392Z,7.10
2018-03-31T23:29:53.471Z,7.10
2018-03-31T23:32:21.264Z,7.10
2018-03-31T23:34:48.280Z,7.10
2018-03-31T23:37:16.041Z,7.10
2018-03-31T23:39:43.808Z,6.80
2018-03-31T23:42:11.567Z,6.80
2018-03-31T23:44:39.391Z,6.90
2018-03-31T23:47:06.378Z,6.90
2018-03-31T23:49:34.416Z,6.80
2018-03-31T23:52:01.610Z,6.70
2018-03-31T23:54:29.385Z,6.70
2018-03-31T23:56:56.402Z,6.60
2018-03-31T23:59:23.435Z,6.60
